Time;durP1;ratioP1;P1;durP2;ratioP2;P2;SDS_P1;SDS_P2;PMS_P1;PMS_P2;Temp;Humidity;BMP_temperature;BMP_pressure;BME280_temperature;BME280_humidity;BME280_pressure;Samples;Min_cycle;Max_cycle;Signal;HPM_P1;HPM_P2
2021/03/18 00:02:02;;;;;;;6.37;3.90;;;5.00;66.40;;;;;;5023067;28;20186;-91
2021/03/18 00:04:27;;;;;;;3.93;3.37;;;5.00;65.20;;;;;;5005777;28;20217;-91
2021/03/18 00:06:53;;;;;;;6.20;3.90;;;5.00;65.90;;;;;;5005194;28;20254;-92
2021/03/18 00:09:20;;;;;;;5.00;3.67;;;5.10;65.70;;;;;;5023380;28;20236;-91
2021/03/18 00:11:49;;;;;;;6.87;3.57;;;5.10;67.20;;;;;;5023275;28;20178;-91
2021/03/18 00:14:17;;;;;;;5.30;3.70;;;5.20;67.90;;;;;;5004875;28;20177;-91
2021/03/18 00:16:43;;;;;;;6.67;4.07;;;5.30;65.70;;;;;;5006977;28;20194;-91
2021/03/18 00:19:09;;;;;;;8.27;3.67;;;5.30;65.80;;;;;;5023432;28;20248;-92
2021/03/18 00:21:35;;;;;;;7.43;3.80;;;5.40;66.30;;;;;;5006529;28;20189;-92
2021/03/18 00:24:01;;;;;;;6.20;3.87;;;5.40;66.50;;;;;;5021274;28;20296;-91
2021/03/18 00:26:29;;;;;;;7.53;3.70;;;5.40;66.90;;;;;;5005599;28;20217;-91
2021/03/18 00:28:55;;;;;;;4.77;3.43;;;5.50;65.40;;;;;;5006310;28;20216;-91
2021/03/18 00:31:22;;;;;;;5.90;3.50;;;5.40;66.80;;;;;;5005693;28;20186;-91
2021/03/18 00:33:49;;;;;;;5.87;4.10;;;5.40;66.20;;;;;;5023350;28;20201;-91
2021/03/18 00:36:15;;;;;;;6.50;3.50;;;5.50;66.40;;;;;;5022362;28;20640;-91
2021/03/18 00:38:41;;;;;;;7.20;3.53;;;5.40;66.70;;;;;;5021857;28;20209;-91
2021/03/18 00:41:09;;;;;;;4.80;3.57;;;5.40;66.40;;;;;;5004960;28;20194;-92
2021/03/18 00:43:35;;;;;;;7.43;4.00;;;5.40;66.90;;;;;;5029334;28;20615;-91
2021/03/18 00:46:02;;;;;;;4.63;3.70;;;5.40;64.70;;;;;;5024976;28;20201;-90
2021/03/18 00:48:30;;;;;;;5.23;3.87;;;5.30;65.30;;;;;;5014714;28;20213;-91
2021/03/18 00:51:02;;;;;;;5.83;3.80;;;5.20;65.20;;;;;;5022913;28;20268;-92
2021/03/18 00:53:37;;;;;;;7.07;3.33;;;5.10;65.20;;;;;;5024726;28;20524;-92
2021/03/18 00:56:12;;;;;;;4.93;3.90;;;4.90;65.70;;;;;;5007717;28;20169;-92
2021/03/18 00:58:40;;;;;;;6.70;3.80;;;4.80;65.70;;;;;;5024634;28;20197;-92
2021/03/18 01:01:06;;;;;;;6.60;3.50;;;4.90;66.50;;;;;;5022908;28;20185;-92
2021/03/18 01:03:35;;;;;;;5.80;3.70;;;4.80;65.60;;;;;;5024503;28;20205;-92
2021/03/18 01:06:06;;;;;;;5.17;3.67;;;4.80;66.70;;;;;;5024825;28;20205;-92
2021/03/18 01:08:33;;;;;;;8.13;3.70;;;4.70;67.10;;;;;;5007531;28;20213;-92
2021/03/18 01:11:06;;;;;;;5.70;3.70;;;4.70;66.50;;;;;;5025757;28;20186;-91
2021/03/18 01:13:34;;;;;;;5.87;3.63;;;4.80;66.50;;;;;;5027224;28;20182;-92
2021/03/18 01:16:04;;;;;;;6.13;3.63;;;4.70;66.90;;;;;;5007839;28;20197;-92
2021/03/18 01:18:45;;;;;;;5.90;4.00;;;4.70;66.20;;;;;;5008334;28;20209;-92
2021/03/18 01:21:11;;;;;;;6.97;4.20;;;4.70;67.50;;;;;;5009379;28;20180;-92
2021/03/18 01:23:37;;;;;;;7.40;4.03;;;4.70;67.30;;;;;;5027898;28;20201;-92
2021/03/18 01:26:05;;;;;;;6.13;4.00;;;4.70;67.40;;;;;;5009768;28;20188;-92
2021/03/18 01:28:31;;;;;;;4.70;3.40;;;4.60;66.00;;;;;;5010666;28;20214;-93
2021/03/18 01:30:57;;;;;;;4.17;3.30;;;4.60;67.40;;;;;;5027446;28;20216;-92
2021/03/18 01:33:24;;;;;;;4.63;3.63;;;4.70;69.10;;;;;;5025445;28;20201;-92
2021/03/18 01:35:50;;;;;;;5.00;3.43;;;4.80;69.30;;;;;;5025875;28;20209;-92
2021/03/18 01:38:16;;;;;;;4.20;3.40;;;4.80;67.60;;;;;;5025732;28;20232;-92
2021/03/18 01:40:42;;;;;;;5.07;3.40;;;4.80;67.60;;;;;;5025311;28;20190;-93
2021/03/18 01:43:08;;;;;;;4.10;3.70;;;4.80;68.00;;;;;;5026877;28;20221;-92
2021/03/18 01:45:35;;;;;;;3.43;3.13;;;4.90;67.50;;;;;;5010361;28;20181;-92
2021/03/18 01:48:01;;;;;;;4.50;3.57;;;4.90;67.80;;;;;;5028027;28;20202;-92
2021/03/18 01:50:29;;;;;;;4.50;3.23;;;4.90;68.60;;;;;;5007484;28;20189;-90
2021/03/18 01:52:57;;;;;;;4.63;3.47;;;4.90;70.00;;;;;;5024439;28;20181;-91
2021/03/18 01:55:41;;;;;;;6.37;3.60;;;5.00;70.50;;;;;;5022988;28;20228;-91
2021/03/18 01:58:08;;;;;;;3.53;3.07;;;5.10;69.90;;;;;;5022629;28;20220;-91
2021/03/18 02:00:35;;;;;;;6.80;3.97;;;5.00;70.40;;;;;;5006847;28;20220;-92
2021/03/18 02:03:02;;;;;;;4.50;3.57;;;5.00;70.30;;;;;;5024190;28;20579;-91
2021/03/18 02:05:29;;;;;;;4.87;3.57;;;5.00;70.60;;;;;;5024614;28;20618;-92
2021/03/18 02:07:56;;;;;;;4.20;3.70;;;5.00;70.10;;;;;;5023013;28;20202;-91
2021/03/18 02:10:24;;;;;;;4.67;3.57;;;5.00;70.00;;;;;;5024773;28;20190;-91
2021/03/18 02:12:50;;;;;;;6.13;4.57;;;5.00;71.00;;;;;;5033491;28;20166;-92
2021/03/18 02:15:19;;;;;;;4.97;3.70;;;5.00;71.00;;;;;;5006798;28;20185;-91
2021/03/18 02:17:50;;;;;;;4.13;3.73;;;5.00;71.00;;;;;;5022629;28;20201;-91
2021/03/18 02:20:35;;;;;;;5.67;3.63;;;5.00;70.70;;;;;;5024109;28;20178;-91
2021/03/18 02:23:38;;;;;;;5.00;4.00;;;4.90;69.00;;;;;;5006329;28;20198;-91
2021/03/18 02:26:19;;;;;;;4.67;3.77;;;4.80;68.90;;;;;;5006167;28;20248;-91
2021/03/18 02:29:13;;;;;;;3.77;3.47;;;4.60;69.20;;;;;;5006098;28;20173;-91
2021/03/18 02:32:24;;;;;;;4.23;3.20;;;4.60;70.50;;;;;;4997636;28;20193;-91
2021/03/18 02:35:07;;;;;;;4.20;3.80;;;4.70;71.40;;;;;;5024077;28;20516;-90
2021/03/18 02:37:34;;;;;;;5.50;3.77;;;4.60;71.80;;;;;;5022001;28;20239;-91
2021/03/18 02:40:15;;;;;;;4.33;3.47;;;4.60;71.90;;;;;;5022739;28;20198;-91
2021/03/18 02:42:44;;;;;;;5.30;3.47;;;4.50;71.90;;;;;;5006278;28;20229;-91
2021/03/18 02:45:11;;;;;;;3.73;3.30;;;4.50;72.50;;;;;;5024298;28;20170;-91
2021/03/18 02:47:39;;;;;;;5.87;3.60;;;4.60;72.10;;;;;;5022295;28;20201;-91
2021/03/18 02:50:08;;;;;;;4.97;3.67;;;4.50;71.90;;;;;;5022483;28;20615;-91
2021/03/18 02:52:34;;;;;;;3.70;3.20;;;4.10;71.50;;;;;;5023858;28;20189;-91
2021/03/18 02:55:06;;;;;;;4.87;3.17;;;4.00;74.10;;;;;;5023117;28;20201;-91
2021/03/18 02:57:35;;;;;;;3.70;3.00;;;3.90;74.60;;;;;;5006382;28;20236;-91
2021/03/18 03:00:08;;;;;;;4.70;3.10;;;4.00;74.50;;;;;;5022324;28;20200;-91
2021/03/18 03:02:34;;;;;;;4.87;3.47;;;4.10;74.60;;;;;;5006124;28;20202;-92
2021/03/18 03:05:01;;;;;;;5.53;3.30;;;4.20;74.40;;;;;;5023004;28;20205;-91
2021/03/18 03:07:29;;;;;;;5.30;3.13;;;4.20;74.00;;;;;;5006100;28;20201;-92
2021/03/18 03:09:56;;;;;;;4.63;3.30;;;4.10;74.10;;;;;;5022706;28;20239;-91
2021/03/18 03:12:25;;;;;;;4.73;3.77;;;4.20;74.80;;;;;;5022419;28;20177;-91
2021/03/18 03:14:53;;;;;;;4.00;3.33;;;4.20;74.20;;;;;;5023707;28;20178;-91
2021/03/18 03:17:23;;;;;;;3.40;3.10;;;4.20;73.70;;;;;;5023409;28;20198;-91
2021/03/18 03:19:51;;;;;;;3.90;3.30;;;4.20;74.00;;;;;;5022374;28;20263;-90
2021/03/18 03:22:17;;;;;;;4.43;3.30;;;4.30;74.00;;;;;;5023687;28;20249;-91
2021/03/18 03:24:45;;;;;;;6.20;3.70;;;4.30;73.80;;;;;;5006284;28;20256;-91
2021/03/18 03:27:12;;;;;;;6.10;4.37;;;4.30;73.00;;;;;;5021609;28;20224;-91
2021/03/18 03:29:42;;;;;;;4.60;3.50;;;4.30;73.00;;;;;;5023144;28;20197;-91
2021/03/18 03:32:09;;;;;;;5.47;3.83;;;4.20;73.10;;;;;;5006186;28;20166;-91
2021/03/18 03:34:36;;;;;;;4.50;3.83;;;4.20;73.60;;;;;;5023049;28;20184;-91
2021/03/18 03:37:03;;;;;;;4.80;3.40;;;4.10;72.80;;;;;;5033636;28;20185;-91
2021/03/18 03:39:29;;;;;;;5.90;3.30;;;4.00;73.40;;;;;;5025286;28;20665;-92
2021/03/18 03:41:55;;;;;;;5.10;3.70;;;4.10;74.20;;;;;;5031690;28;20200;-91
2021/03/18 03:44:20;;;;;;;5.03;3.97;;;4.10;74.20;;;;;;5023073;28;20213;-92
2021/03/18 03:46:47;;;;;;;4.67;3.90;;;4.10;74.10;;;;;;5006690;28;20201;-92
2021/03/18 03:49:13;;;;;;;4.53;3.00;;;4.00;72.20;;;;;;5026794;28;20241;-92
2021/03/18 03:52:11;;;;;;;4.43;4.00;;;3.90;74.10;;;;;;5028332;28;20181;-92
2021/03/18 03:54:43;;;;;;;6.87;3.43;;;4.00;74.10;;;;;;5028097;28;20185;-91
2021/03/18 03:57:19;;;;;;;4.70;3.00;;;3.90;74.50;;;;;;5027527;28;20265;-92
2021/03/18 03:59:46;;;;;;;6.13;3.77;;;3.90;74.50;;;;;;5028559;28;20171;-92
2021/03/18 04:02:13;;;;;;;4.03;3.47;;;3.90;74.70;;;;;;5027980;28;20546;-92
2021/03/18 04:04:49;;;;;;;6.50;3.40;;;3.80;74.40;;;;;;5028011;28;20251;-91
2021/03/18 04:07:20;;;;;;;4.10;3.30;;;3.80;74.40;;;;;;5010168;28;20252;-92
2021/03/18 04:09:47;;;;;;;6.20;3.70;;;3.90;75.40;;;;;;5027292;28;20162;-92
2021/03/18 04:12:23;;;;;;;6.33;3.70;;;4.00;74.50;;;;;;5028257;28;20217;-92
2021/03/18 04:15:19;;;;;;;5.13;4.10;;;4.00;74.00;;;;;;5009544;28;20173;-92
2021/03/18 04:17:51;;;;;;;5.60;3.67;;;3.90;74.70;;;;;;5021972;28;20221;-93
2021/03/18 04:20:19;;;;;;;4.90;3.50;;;3.90;75.70;;;;;;5010689;28;20264;-92
2021/03/18 04:22:49;;;;;;;4.07;3.30;;;4.00;75.90;;;;;;5010384;28;20209;-91
2021/03/18 04:25:17;;;;;;;6.30;3.63;;;4.10;75.50;;;;;;5027282;28;20176;-92
2021/03/18 04:27:45;;;;;;;5.17;3.20;;;4.10;74.90;;;;;;5027060;28;20696;-92
2021/03/18 04:30:13;;;;;;;5.77;3.60;;;4.00;74.10;;;;;;5027337;28;20213;-92
2021/03/18 04:32:40;;;;;;;9.10;3.60;;;3.70;73.80;;;;;;5028598;28;20188;-92
2021/03/18 04:35:08;;;;;;;4.07;3.67;;;3.70;75.40;;;;;;5027940;28;20192;-92
2021/03/18 04:37:35;;;;;;;5.27;3.67;;;3.70;75.30;;;;;;5026807;28;20288;-91
2021/03/18 04:40:03;;;;;;;5.73;3.77;;;3.70;75.30;;;;;;5027181;28;20194;-92
2021/03/18 04:42:30;;;;;;;4.07;3.57;;;3.80;75.00;;;;;;5026746;28;20653;-91
2021/03/18 04:44:56;;;;;;;5.77;3.70;;;3.70;75.70;;;;;;5009919;28;20181;-91
2021/03/18 04:47:24;;;;;;;7.53;5.30;;;3.70;75.70;;;;;;5028030;28;20217;-91
2021/03/18 04:49:50;;;;;;;6.20;5.60;;;3.70;75.30;;;;;;5027658;28;20522;-92
2021/03/18 04:52:19;;;;;;;6.40;4.77;;;3.80;76.00;;;;;;5027160;28;20182;-92
2021/03/18 04:54:45;;;;;;;5.20;4.00;;;3.80;75.10;;;;;;5027294;28;20181;-91
2021/03/18 04:57:16;;;;;;;4.63;3.90;;;3.70;75.00;;;;;;5009654;28;20245;-91
2021/03/18 04:59:43;;;;;;;4.63;4.23;;;3.60;76.20;;;;;;5016678;28;20176;-91
2021/03/18 05:02:09;;;;;;;4.90;4.40;;;3.60;76.70;;;;;;5039637;28;20189;-90
2021/03/18 05:04:37;;;;;;;5.27;4.30;;;3.50;77.60;;;;;;5039556;28;20186;-90
2021/03/18 05:07:03;;;;;;;4.40;4.00;;;3.70;77.70;;;;;;5038991;28;20206;-91
2021/03/18 05:09:30;;;;;;;6.27;4.33;;;3.70;77.10;;;;;;5021078;28;20185;-91
2021/03/18 05:11:57;;;;;;;6.73;4.40;;;3.70;76.40;;;;;;5026200;28;20193;-92
2021/03/18 05:14:23;;;;;;;6.97;5.33;;;3.70;76.80;;;;;;5027624;28;20241;-91
2021/03/18 05:16:51;;;;;;;5.03;4.50;;;3.70;76.80;;;;;;5025886;28;20197;-92
2021/03/18 05:19:18;;;;;;;7.33;4.93;;;3.70;76.60;;;;;;5025448;28;20189;-92
2021/03/18 05:21:46;;;;;;;6.30;4.67;;;3.60;76.90;;;;;;5026569;28;20182;-91
2021/03/18 05:24:14;;;;;;;5.13;4.20;;;3.50;78.30;;;;;;5009627;28;20684;-92
2021/03/18 05:26:41;;;;;;;4.73;3.80;;;3.60;78.10;;;;;;5009563;28;20572;-92
2021/03/18 05:29:08;;;;;;;5.67;3.80;;;3.70;77.80;;;;;;5027044;28;20197;-91
2021/03/18 05:31:34;;;;;;;4.77;3.80;;;3.70;77.50;;;;;;5025939;28;20177;-92
2021/03/18 05:34:01;;;;;;;4.60;4.00;;;3.70;77.70;;;;;;5025860;28;20182;-91
2021/03/18 05:36:27;;;;;;;5.50;3.93;;;3.80;77.40;;;;;;5025282;28;20193;-92
2021/03/18 05:38:53;;;;;;;4.90;4.00;;;3.80;77.10;;;;;;5025140;28;20205;-93
2021/03/18 05:41:20;;;;;;;5.37;3.70;;;3.70;77.40;;;;;;5009290;28;20190;-92
2021/03/18 05:43:47;;;;;;;5.30;4.43;;;3.80;77.80;;;;;;5009324;28;20202;-92
2021/03/18 05:46:17;;;;;;;4.67;4.10;;;3.70;77.20;;;;;;5024906;28;20249;-90
2021/03/18 05:48:43;;;;;;;5.00;4.13;;;3.80;77.60;;;;;;5005598;28;20204;-91
2021/03/18 05:51:14;;;;;;;6.03;5.13;;;3.80;78.00;;;;;;5026164;28;20252;-91
2021/03/18 05:53:43;;;;;;;5.47;4.20;;;3.80;77.20;;;;;;5025684;28;20229;-91
2021/03/18 05:56:17;;;;;;;5.53;4.40;;;3.80;78.30;;;;;;5025519;28;20204;-89
2021/03/18 05:58:45;;;;;;;7.70;5.57;;;3.90;77.60;;;;;;5024431;28;20204;-89
2021/03/18 06:01:12;;;;;;;6.40;5.17;;;3.90;77.50;;;;;;5017759;28;20189;-91
2021/03/18 06:03:37;;;;;;;6.40;4.60;;;4.00;76.90;;;;;;5017775;28;20700;-90
2021/03/18 06:06:06;;;;;;;8.43;3.97;;;3.80;76.50;;;;;;5003337;28;20190;-90
2021/03/18 06:08:34;;;;;;;6.87;3.87;;;3.60;76.50;;;;;;5005629;28;20221;-90
2021/03/18 06:11:00;;;;;;;4.77;4.27;;;3.50;77.60;;;;;;5004867;28;20182;-90
2021/03/18 06:13:26;;;;;;;5.87;3.87;;;3.40;78.40;;;;;;4987265;28;20195;-90
2021/03/18 06:15:51;;;;;;;6.10;4.30;;;3.50;79.00;;;;;;5005023;28;20182;-90
2021/03/18 06:18:20;;;;;;;5.97;4.90;;;3.30;79.40;;;;;;5005086;28;20245;-89
2021/03/18 06:20:54;;;;;;;7.27;4.97;;;3.20;79.20;;;;;;5001186;28;20185;-89
2021/03/18 06:23:21;;;;;;;6.57;5.47;;;3.40;79.80;;;;;;5005014;28;20213;-91
2021/03/18 06:25:48;;;;;;;8.87;7.20;;;3.40;79.20;;;;;;5010408;28;20194;-90
2021/03/18 06:28:28;;;;;;;6.80;4.70;;;3.50;79.60;;;;;;5005487;28;20197;-90
2021/03/18 06:31:15;;;;;;;6.97;5.30;;;3.50;79.40;;;;;;4992035;28;20198;-90
2021/03/18 06:33:44;;;;;;;5.13;4.63;;;3.50;80.00;;;;;;5005366;28;20177;-90
2021/03/18 06:36:17;;;;;;;6.60;5.20;;;3.60;79.20;;;;;;5014653;28;20635;-90
2021/03/18 06:38:43;;;;;;;7.77;5.33;;;3.70;77.70;;;;;;5023264;28;20198;-89
2021/03/18 06:41:09;;;;;;;6.57;4.90;;;3.70;78.10;;;;;;5025330;28;20221;-91
2021/03/18 06:43:40;;;;;;;5.27;4.77;;;3.60;78.80;;;;;;5023457;28;20224;-90
2021/03/18 06:46:20;;;;;;;5.43;4.60;;;3.60;78.80;;;;;;5004791;28;20186;-90
2021/03/18 06:48:47;;;;;;;6.23;4.50;;;3.70;78.70;;;;;;5023678;28;20281;-90
2021/03/18 06:51:25;;;;;;;5.37;4.70;;;3.80;77.80;;;;;;5024213;28;20177;-90
2021/03/18 06:53:51;;;;;;;8.17;5.40;;;3.90;77.70;;;;;;5023929;28;20200;-90
2021/03/18 06:56:29;;;;;;;8.03;5.40;;;4.00;76.70;;;;;;5024735;28;20212;-90
2021/03/18 06:58:55;;;;;;;8.63;5.40;;;4.00;76.00;;;;;;5024387;28;20170;-91
2021/03/18 07:01:23;;;;;;;6.17;5.57;;;4.10;76.00;;;;;;5007157;28;20599;-91
2021/03/18 07:03:49;;;;;;;7.60;5.43;;;4.10;75.30;;;;;;5023531;28;20223;-90
2021/03/18 07:06:33;;;;;;;10.70;5.53;;;4.10;75.60;;;;;;5023958;28;20245;-88
2021/03/18 07:09:06;;;;;;;6.70;5.10;;;3.90;75.20;;;;;;5020534;28;20255;-88
2021/03/18 07:11:37;;;;;;;5.70;5.13;;;3.80;76.60;;;;;;5021588;28;20174;-88
2021/03/18 07:14:03;;;;;;;7.30;5.77;;;4.00;76.90;;;;;;5022855;28;20499;-89
2021/03/18 07:16:38;;;;;;;6.40;5.23;;;4.00;76.50;;;;;;5023926;28;20195;-88
2021/03/18 07:19:04;;;;;;;10.23;6.73;;;4.20;76.10;;;;;;5007021;28;20186;-88
2021/03/18 07:21:40;;;;;;;8.00;6.47;;;4.20;75.30;;;;;;5024397;28;20181;-88
2021/03/18 07:24:24;;;;;;;9.03;6.30;;;4.20;75.70;;;;;;5010641;28;20295;-88
2021/03/18 07:26:50;;;;;;;8.47;5.93;;;4.30;75.20;;;;;;5011171;28;20202;-92
2021/03/18 07:29:22;;;;;;;8.83;6.17;;;4.30;75.50;;;;;;5010244;28;20568;-92
2021/03/18 07:31:49;;;;;;;7.33;6.37;;;4.20;75.70;;;;;;4993087;28;20186;-92
2021/03/18 07:34:19;;;;;;;8.47;6.20;;;4.20;75.60;;;;;;5010008;28;20182;-92
2021/03/18 07:36:46;;;;;;;7.73;5.53;;;4.10;75.60;;;;;;5011655;28;20225;-93
2021/03/18 07:39:12;;;;;;;10.30;7.13;;;3.90;76.10;;;;;;5009859;28;20193;-92
2021/03/18 07:41:39;;;;;;;8.63;6.77;;;4.10;74.60;;;;;;5008987;28;20195;-92
2021/03/18 07:44:06;;;;;;;7.40;6.70;;;4.10;75.70;;;;;;4999105;28;20225;-92
2021/03/18 07:46:59;;;;;;;8.37;6.97;;;4.10;74.80;;;;;;5027215;28;20268;-92
2021/03/18 07:49:28;;;;;;;8.33;6.47;;;4.10;76.30;;;;;;5022546;28;20219;-91
2021/03/18 07:51:58;;;;;;;7.50;6.10;;;4.20;75.50;;;;;;5041479;28;20182;-92
2021/03/18 07:54:26;;;;;;;7.10;6.40;;;4.30;74.50;;;;;;5038087;28;20178;-92
2021/03/18 07:56:54;;;;;;;7.23;5.60;;;4.30;74.30;;;;;;5011825;28;20615;-92
2021/03/18 07:59:27;;;;;;;7.63;6.67;;;4.40;75.00;;;;;;5011727;28;20182;-92
2021/03/18 08:02:09;;;;;;;6.97;6.27;;;4.40;73.60;;;;;;5011692;28;20636;-92
2021/03/18 08:05:00;;;;;;;9.57;6.00;;;4.50;73.30;;;;;;5025253;28;20194;-92
2021/03/18 08:07:43;;;;;;;10.70;6.07;;;4.60;69.70;;;;;;5018807;28;20661;-92
2021/03/18 08:10:29;;;;;;;7.70;6.80;;;4.60;72.20;;;;;;5009677;28;20185;-91
2021/03/18 08:12:57;;;;;;;7.17;6.00;;;4.60;71.20;;;;;;5017965;28;20193;-91
2021/03/18 08:15:29;;;;;;;8.60;6.13;;;4.50;71.90;;;;;;5045959;28;20276;-92
2021/03/18 08:17:57;;;;;;;8.30;6.00;;;4.40;70.60;;;;;;5018457;28;20220;-92
2021/03/18 08:20:38;;;;;;;8.00;5.37;;;4.60;65.80;;;;;;5002158;28;20197;-93
2021/03/18 08:23:25;;;;;;;9.87;5.30;;;4.60;62.90;;;;;;5003974;28;20295;-92
2021/03/18 08:25:51;;;;;;;8.33;5.20;;;4.50;64.10;;;;;;5021710;28;20182;-92
2021/03/18 08:28:41;;;;;;;9.23;5.60;;;4.40;65.40;;;;;;5011686;28;20210;-93
2021/03/18 08:31:17;;;;;;;8.93;5.50;;;4.40;66.20;;;;;;5002735;28;20209;-92
2021/03/18 08:33:47;;;;;;;7.27;5.37;;;4.60;62.90;;;;;;4996995;28;20257;-92
2021/03/18 08:36:30;;;;;;;9.97;5.77;;;4.60;63.90;;;;;;5003791;28;20185;-91
2021/03/18 08:38:58;;;;;;;6.07;4.63;;;4.50;64.40;;;;;;5021455;28;20213;-91
2021/03/18 08:41:40;;;;;;;9.93;5.40;;;4.40;65.00;;;;;;5020940;28;20602;-92
2021/03/18 08:44:23;;;;;;;6.03;5.33;;;4.60;63.20;;;;;;5013692;28;20220;-90
2021/03/18 08:46:56;;;;;;;6.53;5.23;;;4.80;62.50;;;;;;5017400;28;20205;-91
2021/03/18 08:49:42;;;;;;;7.17;5.63;;;4.90;64.40;;;;;;5011927;28;20185;-91
2021/03/18 08:52:12;;;;;;;7.67;5.20;;;5.00;61.90;;;;;;5010107;28;20186;-91
2021/03/18 08:54:38;;;;;;;7.00;5.33;;;4.90;62.40;;;;;;5029622;28;20200;-91
2021/03/18 08:57:20;;;;;;;5.47;4.97;;;5.00;61.40;;;;;;5007854;28;20198;-91
2021/03/18 08:59:50;;;;;;;9.17;5.30;;;5.20;63.00;;;;;;5008726;28;20201;-91
2021/03/18 09:02:18;;;;;;;6.83;5.47;;;5.20;62.70;;;;;;5018300;28;20170;-91
2021/03/18 09:04:49;;;;;;;10.07;6.73;;;5.40;60.80;;;;;;5012325;28;20288;-90
2021/03/18 09:07:19;;;;;;;7.00;6.20;;;5.60;60.60;;;;;;5016281;28;20237;-92
2021/03/18 09:09:45;;;;;;;9.17;6.03;;;5.80;62.30;;;;;;5010926;28;20238;-91
2021/03/18 09:12:11;;;;;;;8.83;5.50;;;5.90;59.90;;;;;;5004335;28;20190;-91
2021/03/18 09:14:39;;;;;;;6.93;5.37;;;6.00;60.00;;;;;;5038570;28;20177;-90
2021/03/18 09:17:13;;;;;;;8.57;5.70;;;6.30;59.00;;;;;;5032199;28;20268;-91
2021/03/18 09:19:46;;;;;;;8.27;5.03;;;6.40;57.40;;;;;;5011978;28;20207;-92
2021/03/18 09:22:24;;;;;;;8.97;5.53;;;6.60;57.40;;;;;;5029496;28;20529;-92
2021/03/18 09:24:54;;;;;;;7.57;5.40;;;6.70;56.40;;;;;;5018631;28;20209;-91
2021/03/18 09:27:20;;;;;;;7.40;5.87;;;6.70;56.10;;;;;;5026472;28;20316;-91
2021/03/18 09:29:46;;;;;;;6.50;5.30;;;6.80;55.40;;;;;;5028056;28;20197;-93
2021/03/18 09:32:13;;;;;;;7.07;5.17;;;6.90;54.90;;;;;;5027564;28;20185;-92
2021/03/18 09:34:43;;;;;;;7.30;5.30;;;7.00;54.90;;;;;;5025332;28;20186;-92
2021/03/18 09:37:09;;;;;;;8.50;5.57;;;6.80;56.40;;;;;;5030214;28;20199;-91
2021/03/18 09:39:37;;;;;;;6.80;5.57;;;7.10;55.30;;;;;;4998897;28;20632;-92
2021/03/18 09:42:06;;;;;;;9.67;5.40;;;7.10;56.80;;;;;;5024391;28;20213;-89
2021/03/18 09:44:33;;;;;;;9.83;5.43;;;7.20;56.90;;;;;;5026572;28;20241;-93
2021/03/18 09:47:01;;;;;;;5.97;5.37;;;7.50;53.70;;;;;;5027812;28;20204;-92
2021/03/18 09:49:36;;;;;;;9.53;5.20;;;7.80;52.20;;;;;;5016281;28;20189;-92
2021/03/18 09:52:05;;;;;;;9.77;6.10;;;7.90;50.90;;;;;;5021278;28;20197;-93
2021/03/18 09:54:32;;;;;;;8.03;5.33;;;7.90;52.90;;;;;;5008304;28;20199;-87
2021/03/18 09:57:00;;;;;;;57.37;53.33;;;8.10;52.10;;;;;;5009149;28;20599;-89
2021/03/18 09:59:27;;;;;;;7.80;5.70;;;8.40;50.40;;;;;;5029263;28;20252;-93
2021/03/18 10:01:53;;;;;;;7.03;5.27;;;8.60;51.80;;;;;;5028194;28;20181;-92
2021/03/18 10:04:22;;;;;;;6.30;5.60;;;8.60;48.70;;;;;;4991306;28;20202;-93
2021/03/18 10:06:51;;;;;;;6.60;5.30;;;8.70;49.30;;;;;;5025649;28;20216;-93
2021/03/18 10:09:34;;;;;;;7.47;6.10;;;8.90;50.80;;;;;;5027744;28;20269;-93
2021/03/18 10:12:04;;;;;;;6.40;5.77;;;9.00;51.60;;;;;;5026774;28;20243;-93
2021/03/18 10:14:58;;;;;;;5.77;5.10;;;9.20;52.50;;;;;;5029045;28;20227;-93
2021/03/18 10:17:30;;;;;;;7.83;5.70;;;9.20;50.10;;;;;;5005930;28;20213;-93
2021/03/18 10:20:08;;;;;;;8.90;6.17;;;9.20;49.50;;;;;;5012742;28;20189;-93
2021/03/18 10:22:37;;;;;;;8.73;6.10;;;9.50;48.90;;;;;;5027393;28;20170;-92
2021/03/18 10:25:16;;;;;;;7.07;5.33;;;9.60;48.20;;;;;;5029695;28;20170;-94
2021/03/18 10:27:43;;;;;;;9.10;5.63;;;9.60;48.90;;;;;;5014862;28;20205;-93
2021/03/18 10:30:18;;;;;;;6.37;5.30;;;9.40;49.40;;;;;;5037346;28;20190;-92
2021/03/18 10:33:13;;;;;;;5.30;4.80;;;9.60;47.90;;;;;;5021400;28;20235;-94
2021/03/18 10:36:51;;;;;;;7.17;5.10;;;9.40;46.80;;;;;;5035421;28;20198;-93
2021/03/18 10:39:22;;;;;;;5.10;4.10;;;9.10;47.30;;;;;;4994573;28;20204;-92
2021/03/18 10:42:06;;;;;;;5.43;4.37;;;8.70;44.80;;;;;;5016213;28;20178;-93
2021/03/18 10:44:37;;;;;;;7.10;4.37;;;8.60;46.30;;;;;;5028828;28;20205;-94
2021/03/18 10:47:20;;;;;;;5.77;4.30;;;8.60;46.80;;;;;;5012293;28;20231;-94
2021/03/18 10:49:57;;;;;;;7.20;4.97;;;8.70;47.70;;;;;;5010898;28;20190;-93
2021/03/18 10:52:23;;;;;;;7.83;4.83;;;8.70;47.00;;;;;;5028621;28;20185;-93
2021/03/18 10:54:56;;;;;;;8.57;6.07;;;8.40;48.20;;;;;;5027718;28;20178;-93
2021/03/18 10:57:22;;;;;;;6.20;4.60;;;8.40;48.40;;;;;;5008814;28;20202;-94
2021/03/18 11:00:20;;;;;;;7.47;4.87;;;8.40;49.40;;;;;;5009403;28;20239;-93
2021/03/18 11:03:03;;;;;;;7.80;5.27;;;8.30;49.20;;;;;;5008371;28;20200;-93
2021/03/18 11:05:41;;;;;;;7.73;4.80;;;8.20;49.10;;;;;;5010352;28;20553;-94
2021/03/18 11:08:09;;;;;;;9.10;4.73;;;8.10;48.40;;;;;;5010189;28;20209;-94
2021/03/18 11:10:37;;;;;;;6.20;4.63;;;8.20;49.90;;;;;;5009760;28;20186;-94
2021/03/18 11:13:09;;;;;;;5.43;4.93;;;8.80;48.30;;;;;;5009236;28;20812;-94
2021/03/18 11:15:53;;;;;;;5.60;3.97;;;9.50;45.20;;;;;;5009479;28;20213;-94
2021/03/18 11:18:45;;;;;;;5.83;4.80;;;10.00;45.80;;;;;;5026639;28;20256;-94
2021/03/18 11:21:25;;;;;;;10.17;4.47;;;10.20;45.50;;;;;;5007835;28;20194;-94
2021/03/18 11:24:03;;;;;;;5.57;4.70;;;10.60;42.80;;;;;;5009678;28;20186;-94
2021/03/18 11:26:29;;;;;;;8.73;4.63;;;11.10;42.70;;;;;;5027280;28;20169;-94
2021/03/18 11:33:20;;;;;;;6.87;4.97;;;11.70;42.40;;;;;;5026845;28;20197;-93
2021/03/18 11:39:39;;;;;;;6.73;4.40;;;12.20;39.70;;;;;;4948063;29;20275;-94
2021/03/18 11:42:05;;;;;;;7.10;4.17;;;12.00;38.90;;;;;;4954569;29;20231;-92
2021/03/18 11:44:31;;;;;;;7.27;4.63;;;11.60;40.40;;;;;;4971181;28;20228;-93
2021/03/18 11:47:04;;;;;;;7.07;4.40;;;11.50;39.70;;;;;;5013021;28;20209;-94
2021/03/18 11:49:30;;;;;;;6.60;4.40;;;11.20;39.00;;;;;;5011491;28;20166;-93
2021/03/18 11:51:56;;;;;;;14.70;10.97;;;11.10;39.20;;;;;;5008475;28;20190;-93
2021/03/18 11:54:22;;;;;;;4.13;3.30;;;11.10;37.30;;;;;;5008336;28;20194;-95
2021/03/18 11:56:48;;;;;;;5.37;3.20;;;10.70;35.70;;;;;;5010055;28;20230;-95
2021/03/18 11:59:14;;;;;;;6.50;3.37;;;10.50;36.40;;;;;;5010190;28;20193;-94
2021/03/18 12:01:41;;;;;;;4.43;2.80;;;10.40;35.20;;;;;;5010385;28;20722;-94
2021/03/18 12:04:06;;;;;;;3.33;3.03;;;10.40;37.90;;;;;;5016664;28;20206;-96
2021/03/18 12:06:32;;;;;;;3.70;3.40;;;10.30;36.50;;;;;;5013408;28;20197;-94
2021/03/18 12:08:58;;;;;;;5.27;3.33;;;10.20;36.90;;;;;;5009818;28;20186;-94
2021/03/18 12:11:24;;;;;;;3.00;2.57;;;10.20;37.80;;;;;;5013283;28;20193;-94
2021/03/18 12:13:50;;;;;;;4.73;2.93;;;10.40;37.40;;;;;;5013495;28;20193;-95
2021/03/18 12:16:15;;;;;;;4.13;3.50;;;10.30;35.50;;;;;;5030650;28;20186;-93
2021/03/18 12:18:41;;;;;;;4.27;3.87;;;10.80;36.20;;;;;;5014331;28;20237;-94
2021/03/18 12:21:07;;;;;;;4.40;2.90;;;11.50;33.30;;;;;;5013646;28;20187;-93
2021/03/18 12:23:34;;;;;;;3.77;2.50;;;11.70;32.60;;;;;;5013922;28;20223;-95
2021/03/18 12:26:00;;;;;;;2.90;2.40;;;12.20;32.20;;;;;;5013339;28;20251;-94
2021/03/18 12:28:26;;;;;;;3.60;2.70;;;12.40;30.80;;;;;;5012903;28;20202;-94
2021/03/18 12:30:52;;;;;;;2.70;2.50;;;12.00;31.60;;;;;;5030866;28;20251;-93
2021/03/18 12:33:19;;;;;;;3.63;2.30;;;11.70;31.90;;;;;;5019697;28;20191;-93
2021/03/18 12:35:46;;;;;;;3.40;2.67;;;11.20;32.20;;;;;;5013269;28;20183;-95
2021/03/18 12:38:12;;;;;;;2.97;2.73;;;10.80;35.10;;;;;;5029876;28;20199;-93
2021/03/18 12:40:52;;;;;;;3.90;3.20;;;10.80;35.90;;;;;;5012484;28;20273;-92
2021/03/18 12:43:22;;;;;;;3.93;3.50;;;10.70;36.50;;;;;;4998784;28;20262;-93
2021/03/18 12:50:20;;;;;;;4.77;3.30;;;10.20;36.70;;;;;;4971316;29;20186;-92
2021/03/18 12:52:49;;;;;;;11.63;3.90;;;10.30;36.80;;;;;;5007580;28;20207;-93
2021/03/18 12:55:17;;;;;;;3.40;3.00;;;10.90;36.20;;;;;;5029691;28;20188;-93
2021/03/18 12:57:47;;;;;;;3.03;2.73;;;11.40;33.90;;;;;;5028695;28;20577;-93
2021/03/18 13:00:16;;;;;;;3.17;2.87;;;11.70;33.70;;;;;;4996449;28;20232;-93
2021/03/18 13:03:32;;;;;;;2.80;2.60;;;12.00;34.00;;;;;;4996105;28;20191;-93
2021/03/18 13:10:35;;;;;;;3.20;2.90;;;13.20;31.50;;;;;;4987785;28;20189;-93
2021/03/18 13:19:12;;;;;;;8.83;5.80;;;13.40;32.80;;;;;;4996298;28;20215;-89
2021/03/18 13:21:41;;;;;;;8.47;5.90;;;12.90;31.80;;;;;;4971276;28;20205;-89
2021/03/18 13:24:07;;;;;;;16.97;12.13;;;12.80;31.90;;;;;;4975405;28;20216;-90
2021/03/18 13:26:34;;;;;;;5.63;5.13;;;12.40;32.50;;;;;;4971358;28;20176;-89
2021/03/18 13:29:01;;;;;;;5.30;4.10;;;12.00;34.10;;;;;;4973650;28;20214;-88
2021/03/18 13:31:26;;;;;;;5.73;3.73;;;11.60;34.50;;;;;;4979470;28;20245;-89
2021/03/18 13:33:53;;;;;;;5.20;4.40;;;11.30;36.20;;;;;;4974094;28;20203;-89
2021/03/18 13:36:19;;;;;;;4.23;3.73;;;11.20;36.90;;;;;;4998418;28;20261;-88
2021/03/18 13:38:45;;;;;;;5.37;4.63;;;11.00;36.50;;;;;;4987447;28;20199;-87